Gotebo, Oklahoma
Current Conditions -  °F | °C
As of 8:53 PM on Friday 19 Dec 2014 (Local Time) from KHBR Reporting Station
Overcast Overcast  
Wind Chill: 42°   Ceiling: 2300
Heat Index: 42°   Visibility: 9mi
Dew Point: 38°   Wind: 3mph
Humidity: 85%   Direction: 110°ESE
Pressure: 30.21"   Gusts: NA
Location:  35.07°N, 98.87°W
Report Text: KHBR 200253Z AUTO 11003KT 9SM OVC023 06/03 A3021 RMK AO2 SLP236 T00560033 51007
Loading
Personal Weather Stations






























Interactive Weather Map New forecast layout! Learn more

10-Day Weather Forecast

Advertisements
Track Severe Weather on mobile